createdAt,value
2019-03-30T00:01:52.424Z,26.10
2019-03-30T00:04:20.861Z,33.20
2019-03-30T00:06:49.282Z,29.18
2019-03-30T00:09:17.727Z,25.02
2019-03-30T00:11:47.683Z,23.92
2019-03-30T00:14:16.154Z,24.55
2019-03-30T00:16:44.573Z,27.17
2019-03-30T00:19:13.085Z,24.00
2019-03-30T00:21:41.590Z,22.32
2019-03-30T00:24:10.059Z,26.95
2019-03-30T00:26:38.506Z,33.58
2019-03-30T00:29:07.043Z,34.73
2019-03-30T00:31:35.533Z,27.17
2019-03-30T00:34:05.555Z,25.15
2019-03-30T00:36:34.099Z,27.05
2019-03-30T00:39:02.773Z,31.00
2019-03-30T00:41:31.230Z,24.75
2019-03-30T00:43:59.654Z,26.17
2019-03-30T00:46:28.117Z,25.60
2019-03-30T00:48:56.537Z,28.38
2019-03-30T00:51:24.987Z,30.08
2019-03-30T00:53:53.446Z,26.90
2019-03-30T00:56:21.890Z,29.12
2019-03-30T00:58:50.392Z,26.05
2019-03-30T01:01:18.881Z,26.70
2019-03-30T01:03:47.341Z,29.52
2019-03-30T01:06:15.829Z,26.75
2019-03-30T01:08:44.334Z,28.95
2019-03-30T01:11:12.792Z,27.02
2019-03-30T01:13:41.320Z,33.67
2019-03-30T01:16:09.914Z,25.70
2019-03-30T01:18:38.351Z,32.28
2019-03-30T01:21:06.940Z,35.30
2019-03-30T01:23:35.547Z,30.65
2019-03-30T01:26:03.978Z,25.08
2019-03-30T01:28:32.428Z,27.95
2019-03-30T01:31:00.855Z,32.15
2019-03-30T01:33:29.318Z,30.05
2019-03-30T01:35:57.746Z,28.52
2019-03-30T01:38:26.204Z,31.60
2019-03-30T01:40:56.175Z,32.93
2019-03-30T01:43:24.638Z,24.35
2019-03-30T01:45:53.094Z,25.85
2019-03-30T01:48:21.546Z,26.57
2019-03-30T01:50:49.964Z,30.17
2019-03-30T01:53:18.475Z,32.30
2019-03-30T01:55:47.277Z,30.70
2019-03-30T01:58:15.822Z,26.82
2019-03-30T02:00:45.930Z,27.70
2019-03-30T02:03:14.474Z,29.37
2019-03-30T02:05:42.894Z,27.65
2019-03-30T02:08:11.443Z,29.72
2019-03-30T02:10:47.170Z,26.40
2019-03-30T02:13:15.720Z,28.17
2019-03-30T02:15:44.134Z,33.73
2019-03-30T02:18:12.808Z,31.45
2019-03-30T02:20:46.122Z,29.80
2019-03-30T02:23:14.784Z,32.85
2019-03-30T02:25:43.474Z,29.25
2019-03-30T02:28:11.902Z,28.62
2019-03-30T02:30:40.587Z,32.93
2019-03-30T02:33:09.188Z,32.70
2019-03-30T02:35:37.619Z,31.37
2019-03-30T02:38:06.194Z,28.45
2019-03-30T02:40:34.719Z,36.80
2019-03-30T02:43:03.220Z,33.70
2019-03-30T02:45:31.662Z,32.25
2019-03-30T02:48:00.099Z,35.50
2019-03-30T02:50:28.666Z,28.57
2019-03-30T02:52:57.144Z,31.00
2019-03-30T02:55:25.586Z,30.80
2019-03-30T02:57:54.025Z,30.50
2019-03-30T03:00:22.473Z,28.73
2019-03-30T03:02:51.033Z,27.15
2019-03-30T03:05:19.939Z,42.00
2019-03-30T03:07:48.489Z,32.35
2019-03-30T03:10:17.286Z,31.77
2019-03-30T03:12:45.712Z,30.12
2019-03-30T03:15:14.600Z,35.92
2019-03-30T03:17:43.192Z,29.23
2019-03-30T03:20:11.873Z,29.82
2019-03-30T03:22:40.303Z,33.33
2019-03-30T03:25:09.563Z,34.92
2019-03-30T03:27:37.987Z,29.57
2019-03-30T03:30:07.068Z,30.72
2019-03-30T03:32:35.523Z,34.05
2019-03-30T03:35:04.912Z,30.90
2019-03-30T03:37:44.446Z,30.60
2019-03-30T03:40:04.760Z,38.33
2019-03-30T03:42:33.223Z,33.25
2019-03-30T03:45:01.723Z,43.78
2019-03-30T03:47:30.166Z,36.55
2019-03-30T03:49:58.620Z,31.37
2019-03-30T03:52:28.781Z,34.25
2019-03-30T03:54:57.735Z,32.70
2019-03-30T03:57:28.190Z,34.88
2019-03-30T03:59:58.763Z,39.13
2019-03-30T04:02:30.411Z,32.17
2019-03-30T04:05:01.061Z,29.25
2019-03-30T04:07:32.579Z,30.45
2019-03-30T04:10:02.715Z,36.15
2019-03-30T04:12:34.379Z,32.85
2019-03-30T04:15:05.974Z,36.75
2019-03-30T04:17:34.602Z,33.78
2019-03-30T04:20:03.753Z,34.03
2019-03-30T04:22:32.266Z,35.13
2019-03-30T04:25:00.703Z,30.62
2019-03-30T04:27:29.144Z,32.05
2019-03-30T04:29:57.604Z,32.63
2019-03-30T04:32:26.064Z,33.08
2019-03-30T04:34:54.496Z,33.83
2019-03-30T04:37:22.937Z,31.10
2019-03-30T04:39:51.365Z,32.13
2019-03-30T04:42:19.804Z,33.50
2019-03-30T04:44:48.241Z,29.50
2019-03-30T04:47:16.666Z,40.85
2019-03-30T04:49:45.133Z,37.42
2019-03-30T04:52:13.575Z,31.00
2019-03-30T04:54:42.030Z,32.00
2019-03-30T04:57:10.454Z,38.28
2019-03-30T04:59:38.903Z,32.67
2019-03-30T05:02:08.431Z,39.15
2019-03-30T05:04:36.878Z,35.50
2019-03-30T05:07:05.305Z,38.75
2019-03-30T05:09:33.759Z,35.58
2019-03-30T05:12:04.153Z,27.80
2019-03-30T05:14:32.658Z,35.30
2019-03-30T05:17:01.093Z,34.80
2019-03-30T05:19:29.539Z,31.82
2019-03-30T05:22:11.563Z,40.33
2019-03-30T05:24:28.160Z,39.63
2019-03-30T05:26:56.582Z,31.95
2019-03-30T05:29:25.026Z,37.25
2019-03-30T05:31:55.321Z,35.90
2019-03-30T05:34:23.775Z,37.95
2019-03-30T05:36:52.212Z,33.53
2019-03-30T05:39:20.666Z,33.58
2019-03-30T05:41:49.205Z,34.98
2019-03-30T05:44:17.651Z,35.35
2019-03-30T05:46:46.080Z,36.65
2019-03-30T05:49:14.527Z,35.03
2019-03-30T05:51:42.945Z,34.30
2019-03-30T05:54:11.403Z,33.90
2019-03-30T05:56:39.859Z,34.88
2019-03-30T05:59:08.281Z,39.50
2019-03-30T06:01:36.732Z,36.58
2019-03-30T06:04:05.178Z,41.85
2019-03-30T06:06:33.674Z,30.95
2019-03-30T06:09:02.133Z,34.67
2019-03-30T06:11:30.602Z,37.33
2019-03-30T06:14:00.589Z,44.88
2019-03-30T06:16:29.026Z,39.10
2019-03-30T06:18:57.462Z,43.75
2019-03-30T06:21:25.905Z,40.38
2019-03-30T06:23:54.327Z,42.88
2019-03-30T06:26:22.777Z,36.38
2019-03-30T06:28:52.232Z,36.48
2019-03-30T06:31:20.684Z,40.60
2019-03-30T06:33:49.123Z,43.60
2019-03-30T06:36:17.643Z,40.48
2019-03-30T06:38:46.077Z,44.70
2019-03-30T06:41:14.520Z,43.48
2019-03-30T06:43:44.491Z,40.23
2019-03-30T06:46:12.936Z,43.48
2019-03-30T06:48:41.367Z,46.70
2019-03-30T06:51:09.838Z,43.33
2019-03-30T06:53:39.916Z,46.37
2019-03-30T06:56:08.414Z,49.70
2019-03-30T06:58:36.843Z,43.87
2019-03-30T07:01:05.919Z,40.80
2019-03-30T07:03:34.354Z,36.60
2019-03-30T07:06:03.261Z,37.17
2019-03-30T07:08:33.226Z,35.58
2019-03-30T07:11:03.805Z,31.90
2019-03-30T07:13:34.268Z,35.58
2019-03-30T07:16:04.163Z,36.53
2019-03-30T07:18:34.367Z,31.77
2019-03-30T07:21:02.822Z,32.75
2019-03-30T07:23:31.277Z,34.70
2019-03-30T07:25:59.700Z,36.45
2019-03-30T07:28:28.145Z,35.45
2019-03-30T07:30:56.572Z,35.75
2019-03-30T07:33:25.039Z,42.75
2019-03-30T07:35:53.508Z,30.92
2019-03-30T07:38:21.947Z,33.28
2019-03-30T07:40:50.372Z,34.43
2019-03-30T07:43:18.825Z,36.42
2019-03-30T07:45:47.314Z,33.83
2019-03-30T07:48:15.771Z,41.05
2019-03-30T07:50:44.200Z,33.18
2019-03-30T07:53:25.735Z,33.65
2019-03-30T07:55:44.342Z,33.50
2019-03-30T07:58:12.778Z,33.95
2019-03-30T08:00:41.242Z,35.28
2019-03-30T08:03:09.752Z,41.80
2019-03-30T08:05:38.223Z,43.10
2019-03-30T08:08:06.655Z,39.90
2019-03-30T08:10:35.125Z,38.92
2019-03-30T08:13:03.589Z,39.50
2019-03-30T08:15:32.077Z,44.70
2019-03-30T08:18:00.527Z,34.83
2019-03-30T08:20:29.075Z,39.77
2019-03-30T08:22:57.603Z,44.27
2019-03-30T08:25:26.045Z,36.53
2019-03-30T08:27:54.550Z,37.87
2019-03-30T08:30:23.035Z,40.20
2019-03-30T08:32:51.483Z,36.83
2019-03-30T08:35:20.071Z,39.57
2019-03-30T08:37:48.499Z,38.40
2019-03-30T08:40:16.954Z,40.70
2019-03-30T08:42:45.390Z,36.77
2019-03-30T08:45:13.931Z,40.73
2019-03-30T08:47:42.379Z,42.83
2019-03-30T08:50:11.282Z,37.20
2019-03-30T08:52:39.718Z,36.80
2019-03-30T08:55:09.010Z,36.03
2019-03-30T08:57:37.521Z,37.60
2019-03-30T09:00:06.811Z,39.57
2019-03-30T09:02:35.213Z,32.70
2019-03-30T09:05:04.780Z,32.53
2019-03-30T09:07:34.807Z,34.33
2019-03-30T09:10:05.306Z,31.23
2019-03-30T09:12:33.858Z,35.83
2019-03-30T09:15:02.289Z,33.97
2019-03-30T09:17:30.742Z,34.30
2019-03-30T09:19:59.186Z,31.43
2019-03-30T09:22:27.622Z,37.83
2019-03-30T09:24:56.056Z,29.50
2019-03-30T09:27:24.510Z,30.60
2019-03-30T09:29:52.984Z,28.47
2019-03-30T09:32:21.439Z,29.00
2019-03-30T09:34:49.962Z,30.60
2019-03-30T09:37:18.606Z,32.53
2019-03-30T09:39:47.033Z,34.80
2019-03-30T09:42:15.481Z,24.20
2019-03-30T09:44:43.987Z,26.67
2019-03-30T09:47:12.439Z,28.63
2019-03-30T09:49:40.893Z,29.53
2019-03-30T09:52:09.503Z,25.23
2019-03-30T09:54:37.969Z,21.80
2019-03-30T09:57:06.688Z,24.47
2019-03-30T09:59:35.119Z,26.33
2019-03-30T10:02:03.671Z,22.70
2019-03-30T10:04:32.098Z,22.40
2019-03-30T10:07:00.559Z,29.83
2019-03-30T10:09:29.010Z,25.90
2019-03-30T10:11:57.456Z,25.00
2019-03-30T10:14:25.918Z,51.87
2019-03-30T10:16:54.415Z,24.37
2019-03-30T10:19:22.867Z,23.60
2019-03-30T10:21:51.302Z,25.70
2019-03-30T10:24:19.754Z,19.10
2019-03-30T10:26:48.211Z,23.70
2019-03-30T10:29:16.665Z,22.57
2019-03-30T10:31:45.106Z,20.47
2019-03-30T10:34:13.574Z,26.47
2019-03-30T10:36:43.649Z,21.67
2019-03-30T10:39:12.115Z,22.97
2019-03-30T10:41:40.543Z,23.70
2019-03-30T10:44:09.004Z,22.30
2019-03-30T10:46:37.538Z,25.30
2019-03-30T10:49:05.988Z,22.60
2019-03-30T10:51:34.411Z,24.60
2019-03-30T10:54:02.876Z,24.43
2019-03-30T10:56:31.304Z,23.63
2019-03-30T10:58:59.772Z,20.90
2019-03-30T11:01:28.197Z,24.67
2019-03-30T11:03:56.622Z,23.40
2019-03-30T11:06:25.082Z,31.03
2019-03-30T11:08:53.634Z,21.43
2019-03-30T11:11:22.133Z,26.67
2019-03-30T11:13:50.571Z,22.33
2019-03-30T11:16:19.040Z,23.70
2019-03-30T11:18:47.475Z,26.73
2019-03-30T11:21:15.917Z,20.63
2019-03-30T11:23:44.363Z,20.17
2019-03-30T11:26:12.803Z,19.93
2019-03-30T11:28:41.226Z,26.07
2019-03-30T11:31:09.718Z,26.30
2019-03-30T11:33:38.194Z,21.57
2019-03-30T11:36:06.646Z,20.47
2019-03-30T11:38:35.081Z,22.87
2019-03-30T11:41:03.701Z,23.93
2019-03-30T11:43:32.166Z,21.97
2019-03-30T11:46:00.650Z,22.70
2019-03-30T11:48:29.137Z,23.10
2019-03-30T11:50:57.587Z,18.20
2019-03-30T11:53:26.031Z,19.43
2019-03-30T11:55:54.497Z,17.67
2019-03-30T11:58:22.942Z,19.47
2019-03-30T12:00:51.366Z,18.73
2019-03-30T12:03:19.839Z,20.27
2019-03-30T12:05:48.266Z,19.50
2019-03-30T12:08:16.732Z,19.50
2019-03-30T12:10:45.178Z,16.10
2019-03-30T12:13:13.770Z,21.03
2019-03-30T12:15:42.209Z,15.60
2019-03-30T12:18:10.662Z,19.97
2019-03-30T12:20:39.085Z,14.90
2019-03-30T12:23:07.539Z,20.43
2019-03-30T12:25:36.351Z,18.20
2019-03-30T12:28:04.925Z,18.77
2019-03-30T12:30:33.418Z,20.20
2019-03-30T12:33:01.874Z,22.63
2019-03-30T12:35:30.307Z,19.27
2019-03-30T12:37:58.795Z,22.23
2019-03-30T12:40:27.350Z,20.00
2019-03-30T12:42:55.875Z,21.40
2019-03-30T12:45:24.454Z,24.67
2019-03-30T12:47:52.895Z,22.63
2019-03-30T12:50:21.398Z,21.33
2019-03-30T12:52:49.852Z,18.50
2019-03-30T12:55:18.368Z,17.50
2019-03-30T12:57:46.814Z,23.80
2019-03-30T13:00:15.721Z,20.00
2019-03-30T13:02:44.182Z,19.33
2019-03-30T13:05:12.759Z,16.67
2019-03-30T13:07:41.207Z,16.57
2019-03-30T13:10:09.966Z,16.80
2019-03-30T13:12:38.411Z,18.53
2019-03-30T13:15:07.600Z,20.00
2019-03-30T13:17:36.034Z,16.63
2019-03-30T13:20:06.333Z,14.87
2019-03-30T13:22:34.812Z,15.57
2019-03-30T13:25:03.424Z,18.83
2019-03-30T13:27:31.855Z,15.90
2019-03-30T13:30:00.428Z,22.63
2019-03-30T13:32:30.953Z,17.47
2019-03-30T13:34:59.627Z,20.73
2019-03-30T13:37:28.058Z,14.03
2019-03-30T13:39:56.491Z,17.07
2019-03-30T13:42:24.920Z,14.80
2019-03-30T13:44:53.371Z,14.23
2019-03-30T13:47:21.810Z,17.30
2019-03-30T13:49:50.267Z,13.27
2019-03-30T13:52:18.700Z,13.73
2019-03-30T13:54:47.130Z,16.50
2019-03-30T13:57:15.645Z,17.00
2019-03-30T13:59:44.099Z,15.60
2019-03-30T14:02:12.561Z,22.17
2019-03-30T14:04:41.060Z,18.33
2019-03-30T14:07:09.562Z,20.70
2019-03-30T14:09:38.001Z,22.20
2019-03-30T14:12:06.462Z,18.17
2019-03-30T14:14:36.752Z,19.77
2019-03-30T14:17:05.184Z,20.20
2019-03-30T14:19:33.599Z,17.77
2019-03-30T14:22:02.045Z,20.43
2019-03-30T14:24:30.465Z,24.83
2019-03-30T14:26:58.990Z,21.37
2019-03-30T14:29:27.534Z,19.43
2019-03-30T14:31:57.661Z,16.97
2019-03-30T14:34:26.150Z,20.30
2019-03-30T14:36:54.599Z,22.77
2019-03-30T14:39:23.011Z,19.40
2019-03-30T14:41:51.514Z,16.43
2019-03-30T14:44:19.959Z,21.67
2019-03-30T14:46:48.394Z,20.53
2019-03-30T14:49:16.828Z,20.07
2019-03-30T14:51:45.321Z,27.63
2019-03-30T14:54:13.806Z,27.20
2019-03-30T14:56:45.873Z,25.67
2019-03-30T14:59:14.448Z,24.33
2019-03-30T15:01:42.862Z,27.30
2019-03-30T15:04:13.055Z,22.03
2019-03-30T15:06:41.478Z,23.13
2019-03-30T15:09:09.990Z,28.20
2019-03-30T15:11:38.449Z,25.83
2019-03-30T15:14:07.020Z,27.00
2019-03-30T15:16:35.450Z,22.70
2019-03-30T15:19:04.066Z,24.43
2019-03-30T15:21:32.578Z,23.10
2019-03-30T15:24:01.043Z,22.87
2019-03-30T15:26:29.496Z,23.70
2019-03-30T15:28:58.019Z,27.13
2019-03-30T15:31:26.486Z,26.67
2019-03-30T15:33:55.079Z,26.73
2019-03-30T15:36:23.607Z,28.13
2019-03-30T15:38:52.065Z,24.43
2019-03-30T15:41:20.608Z,24.43
2019-03-30T15:43:51.835Z,30.20
2019-03-30T15:46:19.279Z,27.33
2019-03-30T15:48:47.747Z,26.83
2019-03-30T15:51:16.234Z,29.30
2019-03-30T15:53:44.762Z,26.03
2019-03-30T15:56:13.271Z,20.97
2019-03-30T15:58:41.787Z,25.93
2019-03-30T16:01:10.357Z,28.40
2019-03-30T16:03:38.797Z,30.90
2019-03-30T16:06:07.269Z,30.70
2019-03-30T16:08:35.698Z,31.43
2019-03-30T16:11:04.387Z,28.60
2019-03-30T16:13:32.812Z,26.70
2019-03-30T16:16:01.269Z,26.27
2019-03-30T16:18:29.693Z,29.97
2019-03-30T16:20:58.138Z,28.80
2019-03-30T16:23:26.565Z,32.30
2019-03-30T16:25:55.062Z,25.00
2019-03-30T16:28:23.484Z,22.30
2019-03-30T16:30:52.013Z,30.70
2019-03-30T16:33:20.453Z,31.27
2019-03-30T16:35:48.894Z,26.33
2019-03-30T16:38:17.324Z,25.10
2019-03-30T16:40:45.856Z,30.40
2019-03-30T16:43:14.300Z,25.67
2019-03-30T16:45:42.749Z,27.30
2019-03-30T16:48:14.623Z,30.03
2019-03-30T16:50:41.382Z,25.40
2019-03-30T16:53:10.055Z,29.97
2019-03-30T16:55:38.516Z,33.30
2019-03-30T16:58:06.955Z,28.07
2019-03-30T17:00:35.539Z,25.27
2019-03-30T17:03:06.035Z,29.57
2019-03-30T17:05:34.528Z,31.80
2019-03-30T17:08:03.002Z,25.47
2019-03-30T17:10:31.426Z,27.17
2019-03-30T17:12:59.887Z,27.53
2019-03-30T17:15:29.911Z,27.60
2019-03-30T17:17:58.475Z,25.03
2019-03-30T17:20:27.103Z,28.57
2019-03-30T17:22:58.698Z,34.60
2019-03-30T17:25:25.883Z,26.47
2019-03-30T17:27:58.436Z,34.83
2019-03-30T17:30:24.643Z,28.23
2019-03-30T17:32:53.127Z,39.93
2019-03-30T17:35:21.550Z,27.93
2019-03-30T17:37:50.189Z,20.20
2019-03-30T17:40:18.711Z,23.87
2019-03-30T17:42:47.287Z,21.90
2019-03-30T17:45:15.962Z,19.90
2019-03-30T17:47:44.423Z,22.83
2019-03-30T17:50:13.470Z,24.23
2019-03-30T17:52:41.919Z,21.07
2019-03-30T17:55:10.824Z,21.87
2019-03-30T17:57:39.371Z,60.73
2019-03-30T18:00:13.362Z,32.70
2019-03-30T18:02:41.827Z,30.00
2019-03-30T18:05:10.623Z,25.07
2019-03-30T18:07:39.146Z,29.90
2019-03-30T18:10:07.930Z,36.93
2019-03-30T18:12:36.372Z,41.73
2019-03-30T18:15:06.289Z,38.40
2019-03-30T18:17:34.851Z,38.20
2019-03-30T18:20:04.462Z,29.90
2019-03-30T18:22:32.898Z,26.13
2019-03-30T18:25:01.528Z,26.50
2019-03-30T18:27:29.953Z,20.17
2019-03-30T18:29:58.411Z,27.20
2019-03-30T18:32:26.829Z,21.83
2019-03-30T18:34:56.743Z,22.17
2019-03-30T18:37:25.524Z,20.67
2019-03-30T18:39:54.711Z,20.47
2019-03-30T18:42:23.218Z,21.03
2019-03-30T18:44:54.489Z,23.13
2019-03-30T18:47:22.899Z,21.30
2019-03-30T18:49:51.351Z,21.47
2019-03-30T18:52:20.015Z,21.40
2019-03-30T18:54:50.706Z,18.63
2019-03-30T18:57:20.659Z,20.90
2019-03-30T18:59:49.108Z,20.83
2019-03-30T19:02:19.193Z,28.40
2019-03-30T19:04:47.747Z,29.80
2019-03-30T19:07:16.292Z,17.80
2019-03-30T19:09:44.743Z,26.33
2019-03-30T19:12:13.171Z,30.67
2019-03-30T19:14:41.708Z,22.97
2019-03-30T19:17:10.158Z,28.93
2019-03-30T19:19:38.610Z,25.15
2019-03-30T19:22:07.065Z,27.50
2019-03-30T19:24:35.739Z,24.03
2019-03-30T19:27:04.215Z,20.70
2019-03-30T19:29:32.651Z,20.10
2019-03-30T19:32:01.179Z,18.95
2019-03-30T19:34:31.442Z,21.15
2019-03-30T19:36:59.910Z,16.93
2019-03-30T19:39:28.343Z,36.70
2019-03-30T19:41:56.795Z,19.32
2019-03-30T19:44:25.223Z,22.32
2019-03-30T19:46:53.721Z,20.27
2019-03-30T19:49:22.157Z,20.60
2019-03-30T19:51:52.319Z,24.43
2019-03-30T19:54:20.826Z,23.70
2019-03-30T19:56:49.272Z,61.35
2019-03-30T19:59:17.716Z,129.20
2019-03-30T20:01:46.206Z,192.13
2019-03-30T20:04:15.292Z,196.47
2019-03-30T20:06:43.747Z,137.37
2019-03-30T20:09:12.632Z,162.40
2019-03-30T20:11:41.235Z,152.90
2019-03-30T20:14:09.686Z,126.30
2019-03-30T20:16:38.115Z,84.95
2019-03-30T20:19:12.764Z,42.40
2019-03-30T20:21:36.725Z,23.95
2019-03-30T20:24:05.242Z,25.43
2019-03-30T20:26:33.690Z,22.50
2019-03-30T20:29:02.160Z,21.12
2019-03-30T20:31:30.589Z,25.23
2019-03-30T20:33:59.031Z,27.45
2019-03-30T20:36:27.458Z,21.02
2019-03-30T20:38:56.117Z,21.82
2019-03-30T20:41:24.543Z,25.90
2019-03-30T20:43:52.986Z,30.82
2019-03-30T20:46:21.423Z,26.15
2019-03-30T20:48:49.888Z,24.15
2019-03-30T20:51:18.394Z,29.48
2019-03-30T20:53:46.832Z,26.62
2019-03-30T20:56:15.254Z,24.67
2019-03-30T20:58:43.707Z,25.23
2019-03-30T21:01:12.155Z,25.02
2019-03-30T21:03:40.604Z,25.55
2019-03-30T21:06:09.040Z,26.68
2019-03-30T21:08:37.520Z,25.72
2019-03-30T21:11:05.955Z,21.62
2019-03-30T21:13:34.431Z,27.82
2019-03-30T21:16:02.868Z,28.40
2019-03-30T21:18:31.375Z,25.57
2019-03-30T21:20:59.825Z,26.95
2019-03-30T21:23:28.415Z,40.20
2019-03-30T21:25:56.867Z,28.27
2019-03-30T21:28:25.307Z,28.10
2019-03-30T21:30:53.823Z,31.68
2019-03-30T21:33:22.258Z,27.17
2019-03-30T21:35:50.719Z,28.10
2019-03-30T21:38:19.145Z,26.75
2019-03-30T21:40:47.661Z,24.37
2019-03-30T21:43:19.440Z,29.60
2019-03-30T21:45:46.262Z,32.55
2019-03-30T21:48:14.697Z,28.60
2019-03-30T21:50:43.262Z,27.42
2019-03-30T21:53:11.692Z,25.62
2019-03-30T21:55:40.159Z,28.45
2019-03-30T21:58:08.581Z,32.05
2019-03-30T22:00:38.762Z,29.95
2019-03-30T22:03:07.406Z,28.83
2019-03-30T22:05:36.425Z,28.90
2019-03-30T22:08:06.110Z,25.97
2019-03-30T22:10:34.807Z,31.97
2019-03-30T22:13:04.329Z,25.65
2019-03-30T22:15:32.825Z,24.60
2019-03-30T22:18:01.278Z,33.48
2019-03-30T22:20:29.727Z,28.20
2019-03-30T22:22:58.195Z,26.93
2019-03-30T22:25:26.628Z,26.27
2019-03-30T22:27:55.072Z,26.42
2019-03-30T22:30:25.080Z,25.40
2019-03-30T22:32:53.670Z,24.80
2019-03-30T22:35:22.080Z,25.10
2019-03-30T22:37:50.533Z,25.43
2019-03-30T22:40:18.964Z,24.65
2019-03-30T22:42:47.482Z,26.73
2019-03-30T22:45:16.074Z,27.15
2019-03-30T22:47:44.695Z,32.28
2019-03-30T22:50:13.459Z,27.37
2019-03-30T22:52:42.101Z,31.30
2019-03-30T22:55:10.694Z,26.70
2019-03-30T22:57:39.174Z,29.60
2019-03-30T23:00:11.457Z,30.70
2019-03-30T23:02:40.114Z,25.55
2019-03-30T23:05:08.701Z,28.62
2019-03-30T23:07:37.163Z,26.80
2019-03-30T23:10:06.826Z,29.90
2019-03-30T23:12:35.283Z,34.48
2019-03-30T23:15:04.657Z,28.95
2019-03-30T23:17:33.105Z,24.57
2019-03-30T23:20:01.538Z,28.25
2019-03-30T23:22:29.983Z,33.50
2019-03-30T23:24:58.425Z,29.45
2019-03-30T23:27:26.926Z,31.15
2019-03-30T23:29:55.378Z,28.25
2019-03-30T23:32:23.794Z,28.95
2019-03-30T23:34:52.339Z,34.40
2019-03-30T23:37:20.786Z,26.77
2019-03-30T23:39:49.235Z,29.92
2019-03-30T23:42:17.658Z,30.20
2019-03-30T23:44:46.114Z,27.00
2019-03-30T23:47:14.554Z,25.55
2019-03-30T23:49:43.075Z,24.23
2019-03-30T23:52:11.478Z,29.50
2019-03-30T23:54:39.914Z,24.20
2019-03-30T23:57:08.330Z,22.93
2019-03-30T23:59:38.312Z,25.68
